createdAt,value
2023-06-10T00:00:14.144Z,4.78
2023-06-10T00:01:05.738Z,4.35
2023-06-10T00:02:01.005Z,4.32
2023-06-10T00:02:52.245Z,4.40
2023-06-10T00:03:44.476Z,4.70
2023-06-10T00:04:37.312Z,4.90
2023-06-10T00:05:31.149Z,4.13
2023-06-10T00:06:25.728Z,4.20
2023-06-10T00:07:16.670Z,4.20
2023-06-10T00:08:11.735Z,4.22
2023-06-10T00:09:06.336Z,4.35
2023-06-10T00:09:58.384Z,4.70
2023-06-10T00:11:40.373Z,4.72
2023-06-10T00:12:32.285Z,4.55
2023-06-10T00:14:13.707Z,4.10
2023-06-10T00:15:06.595Z,4.72
2023-06-10T00:15:57.602Z,4.38
2023-06-10T00:16:48.286Z,4.18
2023-06-10T00:17:40.924Z,4.47
2023-06-10T00:18:32.353Z,4.53
2023-06-10T00:19:26.664Z,4.53
2023-06-10T00:20:17.610Z,4.90
2023-06-10T00:21:08.528Z,4.95
2023-06-10T00:21:59.352Z,4.53
2023-06-10T00:22:50.769Z,4.28
2023-06-10T00:23:42.261Z,4.40
2023-06-10T00:24:32.986Z,4.25
2023-06-10T00:25:23.890Z,4.88
2023-06-10T00:26:15.041Z,4.28
2023-06-10T00:27:08.293Z,4.30
2023-06-10T00:28:01.472Z,4.07
2023-06-10T00:28:53.629Z,4.13
2023-06-10T00:29:48.275Z,4.53
2023-06-10T00:30:39.448Z,4.57
2023-06-10T00:31:31.523Z,4.63
2023-06-10T00:32:22.191Z,4.80
2023-06-10T00:33:12.846Z,4.78
2023-06-10T00:34:03.753Z,4.47
2023-06-10T00:34:56.203Z,4.80
2023-06-10T00:35:47.242Z,4.05
2023-06-10T00:36:38.310Z,4.40
2023-06-10T00:37:30.278Z,4.50
2023-06-10T00:38:21.483Z,4.50
2023-06-10T00:39:12.310Z,4.25
2023-06-10T00:40:04.381Z,4.40
2023-06-10T00:40:56.489Z,4.38
2023-06-10T00:41:48.696Z,4.75
2023-06-10T00:42:39.544Z,4.55
2023-06-10T00:43:30.339Z,4.63
2023-06-10T00:44:21.129Z,4.25
2023-06-10T00:45:12.838Z,4.00
2023-06-10T00:46:04.011Z,4.95
2023-06-10T00:46:56.942Z,4.78
2023-06-10T00:47:47.860Z,4.47
2023-06-10T00:48:40.149Z,4.47
2023-06-10T00:49:30.962Z,4.53
2023-06-10T00:50:21.892Z,4.80
2023-06-10T00:51:13.151Z,4.82
2023-06-10T00:52:07.033Z,4.60
2023-06-10T00:53:00.138Z,5.22
2023-06-10T00:53:51.735Z,4.38
2023-06-10T00:54:42.721Z,4.35
2023-06-10T00:55:33.912Z,4.13
2023-06-10T00:56:24.752Z,4.78
2023-06-10T00:57:16.547Z,4.72
2023-06-10T00:58:08.332Z,4.70
2023-06-10T00:58:59.666Z,4.82
2023-06-10T00:59:50.895Z,4.50
2023-06-10T01:00:41.780Z,4.45
2023-06-10T01:01:33.491Z,4.47
2023-06-10T01:02:26.746Z,4.95
2023-06-10T01:03:18.523Z,4.30
2023-06-10T01:04:13.378Z,4.13
2023-06-10T01:05:04.814Z,4.35
2023-06-10T01:06:05.972Z,4.50
2023-06-10T01:07:16.139Z,3.80
2023-06-10T01:08:22.042Z,4.30
2023-06-10T01:09:22.255Z,4.70
2023-06-10T01:10:25.153Z,4.45
2023-06-10T01:11:24.865Z,4.00
2023-06-10T01:12:26.252Z,4.75
2023-06-10T01:13:19.710Z,4.43
2023-06-10T01:14:10.901Z,3.90
2023-06-10T01:15:04.491Z,4.03
2023-06-10T01:15:57.189Z,3.80
2023-06-10T01:16:49.523Z,4.03
2023-06-10T01:18:03.756Z,4.55
2023-06-10T01:18:55.764Z,4.57
2023-06-10T01:19:56.078Z,4.57
2023-06-10T01:20:47.529Z,4.13
2023-06-10T01:22:29.808Z,4.03
2023-06-10T01:23:20.631Z,4.18
2023-06-10T01:24:12.129Z,4.35
2023-06-10T01:25:07.006Z,4.75
2023-06-10T01:26:06.017Z,4.20
2023-06-10T01:27:01.612Z,3.88
2023-06-10T01:27:52.465Z,3.33
2023-06-10T01:29:09.575Z,4.30
2023-06-10T01:30:09.586Z,4.72
2023-06-10T01:31:19.403Z,4.28
2023-06-10T01:32:22.830Z,3.97
2023-06-10T01:33:19.745Z,4.35
2023-06-10T01:34:14.883Z,4.22
2023-06-10T01:35:09.477Z,3.97
2023-06-10T01:36:04.575Z,4.43
2023-06-10T01:36:57.628Z,4.18
2023-06-10T01:37:51.053Z,4.07
2023-06-10T01:38:45.174Z,4.40
2023-06-10T01:39:36.691Z,3.70
2023-06-10T01:40:27.934Z,4.28
2023-06-10T01:41:22.375Z,4.20
2023-06-10T01:42:13.458Z,4.05
2023-06-10T01:43:04.671Z,4.63
2023-06-10T01:43:56.391Z,3.95
2023-06-10T01:44:47.571Z,4.00
2023-06-10T01:45:38.428Z,4.35
2023-06-10T01:46:29.559Z,4.35
2023-06-10T01:47:20.786Z,4.10
2023-06-10T01:48:12.057Z,4.20
2023-06-10T01:49:02.820Z,4.40
2023-06-10T01:49:53.687Z,4.80
2023-06-10T01:50:45.106Z,4.35
2023-06-10T01:51:35.865Z,4.68
2023-06-10T01:52:27.102Z,4.05
2023-06-10T01:53:19.016Z,3.75
2023-06-10T01:54:11.456Z,4.25
2023-06-10T01:55:02.092Z,4.50
2023-06-10T01:55:52.989Z,5.15
2023-06-10T01:56:43.796Z,4.88
2023-06-10T01:57:35.705Z,3.58
2023-06-10T01:58:27.654Z,3.83
2023-06-10T01:59:18.597Z,4.10
2023-06-10T02:00:11.207Z,4.28
2023-06-10T02:01:09.767Z,4.47
2023-06-10T02:02:01.698Z,3.97
2023-06-10T02:02:52.534Z,4.95
2023-06-10T02:03:43.358Z,4.75
2023-06-10T02:04:33.963Z,3.65
2023-06-10T02:05:26.662Z,4.00
2023-06-10T02:06:17.513Z,4.25
2023-06-10T02:07:08.391Z,4.70
2023-06-10T02:07:59.251Z,4.63
2023-06-10T02:08:50.346Z,4.03
2023-06-10T02:09:41.098Z,4.28
2023-06-10T02:10:32.165Z,4.28
2023-06-10T02:11:23.172Z,4.28
2023-06-10T02:12:16.587Z,4.10
2023-06-10T02:13:09.303Z,4.95
2023-06-10T02:14:00.334Z,4.22
2023-06-10T02:14:51.796Z,4.40
2023-06-10T02:15:43.034Z,3.92
2023-06-10T02:16:33.941Z,4.35
2023-06-10T02:17:24.905Z,4.22
2023-06-10T02:18:16.043Z,3.70
2023-06-10T02:19:07.673Z,3.60
2023-06-10T02:20:00.819Z,4.55
2023-06-10T02:20:51.871Z,3.90
2023-06-10T02:21:42.809Z,4.00
2023-06-10T02:22:34.710Z,3.85
2023-06-10T02:23:25.554Z,3.42
2023-06-10T02:24:16.571Z,5.00
2023-06-10T02:25:08.660Z,4.15
2023-06-10T02:25:59.375Z,3.60
2023-06-10T02:26:50.405Z,4.47
2023-06-10T02:27:41.482Z,3.88
2023-06-10T02:29:23.837Z,4.35
2023-06-10T02:30:15.452Z,3.92
2023-06-10T02:31:57.523Z,3.88
2023-06-10T02:32:48.927Z,3.67
2023-06-10T02:33:41.667Z,4.13
2023-06-10T02:34:33.401Z,4.40
2023-06-10T02:36:17.928Z,3.90
2023-06-10T02:37:08.643Z,4.72
2023-06-10T02:37:59.794Z,4.50
2023-06-10T02:38:51.366Z,3.72
2023-06-10T02:39:42.743Z,4.47
2023-06-10T02:40:35.930Z,3.88
2023-06-10T02:41:27.399Z,3.92
2023-06-10T02:42:19.286Z,3.67
2023-06-10T02:43:10.726Z,3.60
2023-06-10T02:44:01.918Z,3.80
2023-06-10T02:44:52.868Z,3.70
2023-06-10T02:45:58.657Z,4.45
2023-06-10T02:46:49.473Z,3.30
2023-06-10T02:48:04.597Z,3.95
2023-06-10T02:48:56.625Z,3.88
2023-06-10T02:49:49.514Z,3.80
2023-06-10T02:50:41.332Z,3.70
2023-06-10T02:51:40.792Z,3.40
2023-06-10T02:52:32.634Z,3.70
2023-06-10T02:53:24.103Z,3.50
2023-06-10T02:54:20.838Z,4.20
2023-06-10T02:55:12.343Z,3.85
2023-06-10T02:56:06.992Z,3.17
2023-06-10T02:56:57.702Z,3.53
2023-06-10T02:57:51.604Z,3.90
2023-06-10T02:58:44.013Z,3.72
2023-06-10T02:59:37.663Z,4.35
2023-06-10T03:00:29.711Z,4.03
2023-06-10T03:01:21.069Z,4.38
2023-06-10T03:02:29.639Z,3.80
2023-06-10T03:03:23.533Z,3.47
2023-06-10T03:04:30.223Z,3.45
2023-06-10T03:05:27.208Z,3.60
2023-06-10T03:06:20.428Z,4.47
2023-06-10T03:07:13.630Z,4.05
2023-06-10T03:08:04.909Z,3.97
2023-06-10T03:08:58.354Z,3.50
2023-06-10T03:09:49.290Z,3.35
2023-06-10T03:10:40.135Z,4.40
2023-06-10T03:11:32.073Z,3.58
2023-06-10T03:12:23.489Z,4.03
2023-06-10T03:13:15.566Z,4.13
2023-06-10T03:14:06.411Z,3.80
2023-06-10T03:14:57.654Z,3.88
2023-06-10T03:15:48.949Z,4.07
2023-06-10T03:16:43.728Z,3.35
2023-06-10T03:17:34.871Z,4.22
2023-06-10T03:18:29.561Z,4.10
2023-06-10T03:19:22.220Z,4.38
2023-06-10T03:20:16.776Z,3.50
2023-06-10T03:21:09.846Z,4.38
2023-06-10T03:22:11.740Z,3.70
2023-06-10T03:23:07.560Z,4.35
2023-06-10T03:23:59.129Z,3.67
2023-06-10T03:24:52.275Z,4.15
2023-06-10T03:25:43.967Z,3.40
2023-06-10T03:26:39.163Z,3.70
2023-06-10T03:27:32.452Z,3.63
2023-06-10T03:28:25.672Z,3.70
2023-06-10T03:29:16.980Z,3.47
2023-06-10T03:30:09.862Z,3.75
2023-06-10T03:31:02.143Z,3.88
2023-06-10T03:31:56.113Z,3.47
2023-06-10T03:32:47.826Z,3.80
2023-06-10T03:33:40.779Z,3.97
2023-06-10T03:34:31.657Z,3.88
2023-06-10T03:35:23.379Z,4.53
2023-06-10T03:36:14.290Z,3.53
2023-06-10T03:37:05.329Z,4.57
2023-06-10T03:37:56.718Z,3.75
2023-06-10T03:38:48.027Z,3.95
2023-06-10T03:39:38.782Z,4.38
2023-06-10T03:41:23.899Z,3.50
2023-06-10T03:42:15.971Z,3.97
2023-06-10T03:43:06.753Z,3.58
2023-06-10T03:43:57.652Z,3.72
2023-06-10T03:44:48.473Z,3.78
2023-06-10T03:45:39.379Z,3.80
2023-06-10T03:46:30.522Z,3.85
2023-06-10T03:47:21.596Z,4.10
2023-06-10T03:48:13.238Z,4.35
2023-06-10T03:49:10.447Z,4.32
2023-06-10T03:50:02.509Z,3.67
2023-06-10T03:51:46.524Z,3.83
2023-06-10T03:52:39.301Z,3.90
2023-06-10T03:53:30.522Z,4.38
2023-06-10T03:54:21.750Z,4.57
2023-06-10T03:55:14.660Z,3.67
2023-06-10T03:56:08.892Z,3.70
2023-06-10T03:56:59.727Z,4.35
2023-06-10T03:57:51.175Z,4.40
2023-06-10T03:58:44.677Z,4.50
2023-06-10T03:59:53.955Z,3.72
2023-06-10T04:00:46.565Z,4.20
2023-06-10T04:01:38.518Z,4.07
2023-06-10T04:02:29.710Z,3.92
2023-06-10T04:03:22.411Z,4.47
2023-06-10T04:04:17.926Z,4.22
2023-06-10T04:05:09.977Z,4.13
2023-06-10T04:06:01.202Z,4.00
2023-06-10T04:06:52.426Z,4.20
2023-06-10T04:07:47.317Z,4.30
2023-06-10T04:08:38.919Z,4.35
2023-06-10T04:09:29.719Z,3.97
2023-06-10T04:10:21.568Z,3.33
2023-06-10T04:11:12.363Z,4.30
2023-06-10T04:12:03.832Z,3.75
2023-06-10T04:12:55.041Z,4.25
2023-06-10T04:13:47.893Z,4.05
2023-06-10T04:14:39.002Z,3.90
2023-06-10T04:15:33.900Z,3.85
2023-06-10T04:16:29.642Z,3.75
2023-06-10T04:17:21.329Z,3.80
2023-06-10T04:18:12.708Z,3.97
2023-06-10T04:19:03.967Z,4.25
2023-06-10T04:19:55.878Z,3.53
2023-06-10T04:21:38.419Z,4.43
2023-06-10T04:22:29.295Z,3.58
2023-06-10T04:23:20.046Z,4.05
2023-06-10T04:24:11.326Z,3.92
2023-06-10T04:25:02.095Z,4.00
2023-06-10T04:25:52.977Z,3.92
2023-06-10T04:26:44.201Z,3.85
2023-06-10T04:27:34.889Z,3.78
2023-06-10T04:28:28.069Z,3.95
2023-06-10T04:29:18.971Z,3.72
2023-06-10T04:30:10.221Z,4.35
2023-06-10T04:31:02.890Z,3.72
2023-06-10T04:31:54.017Z,3.97
2023-06-10T04:32:45.194Z,4.35
2023-06-10T04:33:39.824Z,3.40
2023-06-10T04:35:22.694Z,4.25
2023-06-10T04:36:13.694Z,4.00
2023-06-10T04:37:05.243Z,3.70
2023-06-10T04:37:56.196Z,4.10
2023-06-10T04:38:47.818Z,4.18
2023-06-10T04:39:40.866Z,3.90
2023-06-10T04:40:32.956Z,3.85
2023-06-10T04:41:26.969Z,4.25
2023-06-10T04:42:18.651Z,4.10
2023-06-10T04:43:09.776Z,4.30
2023-06-10T04:44:53.309Z,4.40
2023-06-10T04:45:46.861Z,4.15
2023-06-10T04:46:37.895Z,4.00
2023-06-10T04:47:29.420Z,3.80
2023-06-10T04:48:20.225Z,3.88
2023-06-10T04:49:12.261Z,4.82
2023-06-10T04:50:04.531Z,3.80
2023-06-10T04:50:55.689Z,4.45
2023-06-10T04:51:46.591Z,3.50
2023-06-10T04:52:37.300Z,3.90
2023-06-10T04:53:29.772Z,4.90
2023-06-10T04:54:20.543Z,5.05
2023-06-10T04:55:12.147Z,4.28
2023-06-10T04:56:03.310Z,5.03
2023-06-10T04:56:55.521Z,4.00
2023-06-10T04:57:46.395Z,4.00
2023-06-10T04:58:37.091Z,4.05
2023-06-10T04:59:27.945Z,5.32
2023-06-10T05:00:19.413Z,4.45
2023-06-10T05:01:10.199Z,4.70
2023-06-10T05:02:01.194Z,4.50
2023-06-10T05:02:54.630Z,4.72
2023-06-10T05:03:45.794Z,4.47
2023-06-10T05:04:37.402Z,4.90
2023-06-10T05:05:28.474Z,4.45
2023-06-10T05:06:19.465Z,4.30
2023-06-10T05:07:10.551Z,4.38
2023-06-10T05:08:01.393Z,4.03
2023-06-10T05:08:52.423Z,4.70
2023-06-10T05:09:43.309Z,5.38
2023-06-10T05:10:35.261Z,4.50
2023-06-10T05:12:17.415Z,4.30
2023-06-10T05:13:08.119Z,4.50
2023-06-10T05:13:59.007Z,4.15
2023-06-10T05:14:49.826Z,4.20
2023-06-10T05:15:41.510Z,4.50
2023-06-10T05:16:32.550Z,4.53
2023-06-10T05:17:24.076Z,4.43
2023-06-10T05:18:15.011Z,4.78
2023-06-10T05:19:08.259Z,4.20
2023-06-10T05:19:59.580Z,4.32
2023-06-10T05:20:50.560Z,4.22
2023-06-10T05:21:41.427Z,4.45
2023-06-10T05:22:32.232Z,4.90
2023-06-10T05:23:23.264Z,4.53
2023-06-10T05:24:13.921Z,4.55
2023-06-10T05:25:04.930Z,4.50
2023-06-10T05:25:56.082Z,4.43
2023-06-10T05:26:46.923Z,4.72
2023-06-10T05:27:39.101Z,4.97
2023-06-10T05:29:20.898Z,5.13
2023-06-10T05:30:12.480Z,4.18
2023-06-10T05:31:03.959Z,4.53
2023-06-10T05:31:54.883Z,4.75
2023-06-10T05:32:46.242Z,4.68
2023-06-10T05:33:36.826Z,5.53
2023-06-10T05:34:27.662Z,4.32
2023-06-10T05:35:18.602Z,4.40
2023-06-10T05:36:11.821Z,5.65
2023-06-10T05:37:03.187Z,4.38
2023-06-10T05:37:54.218Z,5.22
2023-06-10T05:38:45.094Z,4.38
2023-06-10T05:39:38.648Z,4.05
2023-06-10T05:40:29.380Z,4.65
2023-06-10T05:41:20.286Z,4.50
2023-06-10T05:42:11.479Z,4.57
2023-06-10T05:43:02.497Z,4.80
2023-06-10T05:43:53.154Z,4.57
2023-06-10T05:44:44.022Z,4.63
2023-06-10T05:45:34.898Z,4.30
2023-06-10T05:46:25.758Z,4.93
2023-06-10T05:47:16.306Z,5.00
2023-06-10T05:48:07.201Z,4.88
2023-06-10T05:48:58.111Z,5.45
2023-06-10T05:49:50.953Z,4.72
2023-06-10T05:50:43.609Z,6.00
2023-06-10T05:51:34.852Z,5.32
2023-06-10T05:52:25.549Z,4.75
2023-06-10T05:53:16.706Z,4.97
2023-06-10T05:54:07.747Z,5.40
2023-06-10T05:54:58.714Z,5.28
2023-06-10T05:55:49.898Z,4.22
2023-06-10T05:56:40.827Z,5.03
2023-06-10T05:57:31.720Z,5.35
2023-06-10T05:58:22.522Z,4.93
2023-06-10T05:59:13.304Z,6.05
2023-06-10T06:00:05.483Z,5.50
2023-06-10T06:01:03.511Z,5.55
2023-06-10T06:01:54.283Z,4.90
2023-06-10T06:02:45.184Z,5.43
2023-06-10T06:03:36.313Z,4.85
2023-06-10T06:04:27.352Z,5.63
2023-06-10T06:05:18.127Z,5.93
2023-06-10T06:06:08.961Z,5.32
2023-06-10T06:06:59.785Z,5.88
2023-06-10T06:07:50.501Z,5.72
2023-06-10T06:08:41.378Z,7.30
2023-06-10T06:09:32.163Z,5.55
2023-06-10T06:10:22.890Z,5.22
2023-06-10T06:11:14.734Z,5.30
2023-06-10T06:12:07.939Z,5.90
2023-06-10T06:12:58.745Z,5.63
2023-06-10T06:13:52.338Z,7.20
2023-06-10T06:14:45.850Z,5.30
2023-06-10T06:15:36.833Z,5.78
2023-06-10T06:16:27.825Z,5.05
2023-06-10T06:17:18.672Z,5.32
2023-06-10T06:18:09.479Z,5.65
2023-06-10T06:19:00.253Z,5.63
2023-06-10T06:19:51.219Z,4.97
2023-06-10T06:20:42.254Z,5.13
2023-06-10T06:21:32.943Z,5.10
2023-06-10T06:22:23.955Z,5.35
2023-06-10T06:23:14.787Z,5.18
2023-06-10T06:24:06.244Z,5.82
2023-06-10T06:24:57.306Z,5.22
2023-06-10T06:25:48.284Z,5.60
2023-06-10T06:26:39.195Z,6.47
2023-06-10T06:27:30.026Z,5.95
2023-06-10T06:28:22.119Z,5.30
2023-06-10T06:29:13.211Z,5.68
2023-06-10T06:30:04.482Z,4.70
2023-06-10T06:30:59.052Z,5.43
2023-06-10T06:31:50.363Z,4.75
2023-06-10T06:32:41.206Z,5.43
2023-06-10T06:33:32.038Z,6.25
2023-06-10T06:34:22.808Z,5.40
2023-06-10T06:35:13.778Z,5.15
2023-06-10T06:36:04.873Z,4.82
2023-06-10T06:36:55.904Z,5.53
2023-06-10T06:37:47.648Z,5.60
2023-06-10T06:38:43.987Z,6.85
2023-06-10T06:39:35.104Z,5.65
2023-06-10T06:40:25.882Z,7.55
2023-06-10T06:41:16.909Z,7.13
2023-06-10T06:42:08.265Z,5.60
2023-06-10T06:43:19.651Z,5.75
2023-06-10T06:44:21.313Z,5.22
2023-06-10T06:45:17.551Z,6.15
2023-06-10T06:46:08.347Z,6.30
2023-06-10T06:46:59.152Z,6.97
2023-06-10T06:47:49.999Z,6.07
2023-06-10T06:48:40.813Z,6.88
2023-06-10T06:49:31.868Z,6.55
2023-06-10T06:50:23.049Z,5.90
2023-06-10T06:51:14.290Z,5.88
2023-06-10T06:52:05.562Z,6.43
2023-06-10T06:52:56.418Z,6.38
2023-06-10T06:53:47.494Z,8.15
2023-06-10T06:54:38.639Z,6.15
2023-06-10T06:55:29.448Z,5.88
2023-06-10T06:56:20.437Z,6.85
2023-06-10T06:57:11.768Z,6.82
2023-06-10T06:58:05.101Z,7.03
2023-06-10T06:58:58.237Z,6.57
2023-06-10T06:59:49.364Z,7.30
2023-06-10T07:00:40.184Z,5.70
2023-06-10T07:01:31.317Z,7.53
2023-06-10T07:02:22.302Z,5.93
2023-06-10T07:03:13.202Z,5.97
2023-06-10T07:04:04.116Z,6.20
2023-06-10T07:04:57.154Z,6.13
2023-06-10T07:05:48.416Z,6.38
2023-06-10T07:06:39.237Z,5.60
2023-06-10T07:07:30.169Z,5.88
2023-06-10T07:08:21.220Z,5.28
2023-06-10T07:09:12.439Z,5.68
2023-06-10T07:10:03.669Z,6.30
2023-06-10T07:10:55.264Z,6.50
2023-06-10T07:11:46.495Z,7.25
2023-06-10T07:12:37.240Z,6.95
2023-06-10T07:13:28.076Z,7.22
2023-06-10T07:14:18.950Z,6.25
2023-06-10T07:15:10.427Z,7.00
2023-06-10T07:16:01.432Z,5.78
2023-06-10T07:16:52.087Z,6.22
2023-06-10T07:17:43.328Z,6.43
2023-06-10T07:18:35.048Z,6.13
2023-06-10T07:19:25.864Z,8.10
2023-06-10T07:20:16.869Z,7.80
2023-06-10T07:21:07.773Z,7.43
2023-06-10T07:21:58.506Z,6.35
2023-06-10T07:22:49.327Z,6.80
2023-06-10T07:23:43.302Z,5.97
2023-06-10T07:24:34.023Z,7.10
2023-06-10T07:25:24.771Z,6.32
2023-06-10T07:26:15.707Z,7.45
2023-06-10T07:27:08.231Z,6.20
2023-06-10T07:27:58.974Z,6.50
2023-06-10T07:28:49.911Z,7.78
2023-06-10T07:29:41.109Z,6.72
2023-06-10T07:30:31.852Z,7.70
2023-06-10T07:31:22.673Z,8.77
2023-06-10T07:32:13.455Z,7.30
2023-06-10T07:33:04.418Z,7.13
2023-06-10T07:33:55.696Z,6.85
2023-06-10T07:34:46.522Z,6.82
2023-06-10T07:35:37.341Z,6.30
2023-06-10T07:36:29.607Z,7.32
2023-06-10T07:37:20.881Z,7.10
2023-06-10T07:38:11.795Z,6.22
2023-06-10T07:39:02.823Z,6.68
2023-06-10T07:39:53.915Z,7.18
2023-06-10T07:40:44.749Z,6.82
2023-06-10T07:41:36.291Z,6.47
2023-06-10T07:42:27.342Z,6.18
2023-06-10T07:43:18.302Z,6.65
2023-06-10T07:44:09.125Z,5.80
2023-06-10T07:44:59.743Z,7.40
2023-06-10T07:45:50.741Z,7.20
2023-06-10T07:46:41.565Z,6.85
2023-06-10T07:47:34.013Z,6.65
2023-06-10T07:48:25.120Z,6.72
2023-06-10T07:49:16.121Z,5.68
2023-06-10T07:50:07.528Z,7.45
2023-06-10T07:50:58.435Z,7.07
2023-06-10T07:51:49.357Z,8.02
2023-06-10T07:52:40.327Z,7.50
2023-06-10T07:53:31.039Z,9.02
2023-06-10T07:54:21.854Z,6.97
2023-06-10T07:55:12.922Z,7.65
2023-06-10T07:56:03.553Z,8.05
2023-06-10T07:56:54.466Z,8.13
2023-06-10T07:57:45.166Z,6.25
2023-06-10T07:58:38.215Z,7.70
2023-06-10T07:59:29.082Z,6.68
2023-06-10T08:00:20.658Z,7.80
2023-06-10T08:01:11.870Z,7.60
2023-06-10T08:02:02.742Z,6.47
2023-06-10T08:02:53.726Z,7.03
2023-06-10T08:03:45.269Z,8.15
2023-06-10T08:04:36.897Z,7.72
2023-06-10T08:05:27.961Z,6.97
2023-06-10T08:06:18.893Z,7.05
2023-06-10T08:07:09.724Z,7.30
2023-06-10T08:08:04.039Z,7.53
2023-06-10T08:08:54.860Z,7.40
2023-06-10T08:09:45.745Z,6.97
2023-06-10T08:10:36.770Z,6.45
2023-06-10T08:11:29.434Z,6.75
2023-06-10T08:12:21.378Z,6.65
2023-06-10T08:13:12.339Z,6.45
2023-06-10T08:14:03.316Z,6.20
2023-06-10T08:14:54.877Z,6.28
2023-06-10T08:15:46.268Z,6.90
2023-06-10T08:16:37.378Z,6.85
2023-06-10T08:17:28.782Z,7.05
2023-06-10T08:18:19.439Z,7.13
2023-06-10T08:19:10.491Z,6.93
2023-06-10T08:20:02.354Z,7.45
2023-06-10T08:20:53.169Z,7.95
2023-06-10T08:21:44.341Z,7.95
2023-06-10T08:22:35.146Z,6.97
2023-06-10T08:23:26.000Z,6.05
2023-06-10T08:24:19.016Z,7.55
2023-06-10T08:25:10.849Z,7.43
2023-06-10T08:26:02.276Z,6.80
2023-06-10T08:26:53.060Z,6.25
2023-06-10T08:27:44.305Z,6.50
2023-06-10T08:28:35.085Z,7.60
2023-06-10T08:29:26.592Z,6.55
2023-06-10T08:31:08.432Z,7.20
2023-06-10T08:31:59.363Z,7.03
2023-06-10T08:32:50.166Z,7.38
2023-06-10T08:33:40.760Z,7.68
2023-06-10T08:34:34.845Z,6.75
2023-06-10T08:35:25.745Z,6.72
2023-06-10T08:36:16.911Z,7.50
2023-06-10T08:37:08.303Z,6.75
2023-06-10T08:37:59.385Z,7.20
2023-06-10T08:38:50.243Z,6.47
2023-06-10T08:39:40.906Z,7.13
2023-06-10T08:40:31.970Z,6.50
2023-06-10T08:41:25.830Z,7.35
2023-06-10T08:42:37.584Z,6.80
2023-06-10T08:43:31.330Z,6.93
2023-06-10T08:44:31.972Z,6.97
2023-06-10T08:45:24.661Z,7.57
2023-06-10T08:46:16.168Z,7.45
2023-06-10T08:47:19.079Z,6.75
2023-06-10T08:48:12.063Z,6.43
2023-06-10T08:49:08.589Z,7.38
2023-06-10T08:50:05.007Z,7.30
2023-06-10T08:50:58.332Z,6.10
2023-06-10T08:51:52.393Z,7.28
2023-06-10T08:52:45.135Z,6.38
2023-06-10T08:53:38.798Z,6.72
2023-06-10T08:54:33.358Z,6.93
2023-06-10T08:55:33.038Z,6.40
2023-06-10T08:56:27.060Z,6.93
2023-06-10T08:57:21.293Z,7.07
2023-06-10T08:58:14.001Z,7.35
2023-06-10T08:59:05.030Z,7.53
2023-06-10T08:59:57.884Z,7.35
2023-06-10T09:00:48.908Z,7.82
2023-06-10T09:01:40.137Z,6.65
2023-06-10T09:02:32.601Z,6.28
2023-06-10T09:03:25.461Z,6.32
2023-06-10T09:04:19.260Z,7.15
2023-06-10T09:05:11.045Z,6.88
2023-06-10T09:06:05.743Z,6.30
2023-06-10T09:06:57.370Z,7.13
2023-06-10T09:07:52.428Z,6.78
2023-06-10T09:08:44.061Z,6.72
2023-06-10T09:09:36.525Z,6.82
2023-06-10T09:10:28.078Z,6.13
2023-06-10T09:11:19.225Z,6.88
2023-06-10T09:12:10.571Z,6.93
2023-06-10T09:13:52.475Z,6.05
2023-06-10T09:14:43.958Z,7.63
2023-06-10T09:15:35.095Z,7.25
2023-06-10T09:16:26.655Z,6.43
2023-06-10T09:17:18.262Z,7.65
2023-06-10T09:18:09.572Z,7.25
2023-06-10T09:19:00.578Z,6.22
2023-06-10T09:19:54.836Z,7.10
2023-06-10T09:20:46.759Z,6.47
2023-06-10T09:21:37.461Z,7.60
2023-06-10T09:22:29.315Z,7.00
2023-06-10T09:25:10.285Z,7.30
2023-06-10T09:26:01.316Z,6.32
2023-06-10T09:27:03.049Z,7.00
2023-06-10T09:27:57.791Z,6.25
2023-06-10T09:28:51.749Z,6.70
2023-06-10T09:29:53.549Z,5.53
2023-06-10T09:30:44.587Z,7.57
2023-06-10T09:31:36.847Z,6.88
2023-06-10T09:32:27.957Z,7.28
2023-06-10T09:33:18.898Z,6.65
2023-06-10T09:34:13.938Z,6.00
2023-06-10T09:35:10.575Z,7.05
2023-06-10T09:36:03.497Z,6.10
2023-06-10T09:36:54.443Z,6.60
2023-06-10T09:37:45.575Z,6.53
2023-06-10T09:38:36.929Z,7.20
2023-06-10T09:39:27.946Z,6.25
2023-06-10T09:40:19.152Z,6.30
2023-06-10T09:41:10.027Z,7.07
2023-06-10T09:42:00.965Z,6.35
2023-06-10T09:43:00.242Z,6.85
2023-06-10T09:43:51.323Z,6.47
2023-06-10T09:44:42.277Z,6.88
2023-06-10T09:45:34.170Z,6.88
2023-06-10T09:46:25.407Z,6.78
2023-06-10T09:47:24.140Z,7.22
2023-06-10T09:48:15.026Z,6.78
2023-06-10T09:49:05.800Z,6.93
2023-06-10T09:49:56.587Z,6.40
2023-06-10T09:50:47.719Z,6.82
2023-06-10T09:51:38.736Z,6.40
2023-06-10T09:52:30.622Z,5.90
2023-06-10T09:53:22.082Z,7.22
2023-06-10T09:54:12.927Z,6.68
2023-06-10T09:55:04.514Z,6.00
2023-06-10T09:57:40.210Z,6.32
2023-06-10T09:58:43.322Z,6.75
2023-06-10T09:59:34.804Z,6.00
2023-06-10T10:00:27.073Z,6.75
2023-06-10T10:01:18.134Z,6.15
2023-06-10T10:02:15.918Z,7.10
2023-06-10T10:03:08.120Z,6.65
2023-06-10T10:03:59.267Z,7.35
2023-06-10T10:04:50.222Z,6.13
2023-06-10T10:05:40.998Z,6.43
2023-06-10T10:06:31.820Z,6.20
2023-06-10T10:07:24.690Z,6.72
2023-06-10T10:08:15.884Z,6.55
2023-06-10T10:09:07.213Z,6.22
2023-06-10T10:09:58.198Z,5.85
2023-06-10T10:10:48.888Z,6.72
2023-06-10T10:11:40.465Z,6.78
2023-06-10T10:12:32.078Z,6.80
2023-06-10T10:13:24.744Z,7.22
2023-06-10T10:14:18.296Z,6.97
2023-06-10T10:15:11.939Z,6.97
2023-06-10T10:16:17.684Z,6.72
2023-06-10T10:17:11.985Z,6.57
2023-06-10T10:18:12.350Z,6.55
2023-06-10T10:19:23.847Z,6.25
2023-06-10T10:20:19.795Z,7.80
2023-06-10T10:21:14.761Z,6.85
2023-06-10T10:22:12.101Z,6.90
2023-06-10T10:23:05.121Z,7.15
2023-06-10T10:24:02.653Z,6.25
2023-06-10T10:25:07.077Z,7.20
2023-06-10T10:26:01.438Z,6.78
2023-06-10T10:26:57.376Z,7.57
2023-06-10T10:28:11.087Z,7.35
2023-06-10T10:29:26.286Z,7.45
2023-06-10T10:30:18.758Z,7.20
2023-06-10T10:31:11.923Z,7.00
2023-06-10T10:32:04.733Z,8.10
2023-06-10T10:32:56.310Z,6.80
2023-06-10T10:33:59.213Z,6.55
2023-06-10T10:35:08.850Z,7.18
2023-06-10T10:36:01.419Z,7.72
2023-06-10T10:36:52.555Z,7.22
2023-06-10T10:37:44.041Z,6.13
2023-06-10T10:39:29.233Z,6.68
2023-06-10T10:40:22.801Z,7.13
2023-06-10T10:41:14.402Z,6.57
2023-06-10T10:42:06.788Z,7.38
2023-06-10T10:42:59.447Z,7.38
2023-06-10T10:43:52.688Z,7.20
2023-06-10T10:44:44.384Z,7.30
2023-06-10T10:45:35.734Z,6.82
2023-06-10T10:46:26.566Z,7.70
2023-06-10T10:47:22.849Z,7.05
2023-06-10T10:48:15.663Z,6.63
2023-06-10T10:49:07.757Z,7.70
2023-06-10T10:50:00.574Z,7.20
2023-06-10T10:50:59.057Z,6.95
2023-06-10T10:52:00.417Z,7.18
2023-06-10T10:52:57.653Z,7.40
2023-06-10T10:54:16.575Z,7.68
2023-06-10T10:55:13.873Z,7.05
2023-06-10T10:56:19.698Z,6.53
2023-06-10T10:57:10.231Z,7.53
2023-06-10T10:58:06.566Z,6.70
2023-06-10T10:59:08.071Z,7.40
2023-06-10T11:00:05.899Z,7.28
2023-06-10T11:00:56.878Z,7.10
2023-06-10T11:01:48.130Z,7.55
2023-06-10T11:02:42.993Z,6.85
2023-06-10T11:03:44.563Z,6.90
2023-06-10T11:04:35.969Z,6.93
2023-06-10T11:05:49.081Z,7.25
2023-06-10T11:06:40.484Z,6.22
2023-06-10T11:07:32.828Z,6.35
2023-06-10T11:08:30.025Z,7.25
2023-06-10T11:09:31.395Z,7.55
2023-06-10T11:10:34.089Z,7.32
2023-06-10T11:11:29.774Z,7.72
2023-06-10T11:12:25.135Z,7.25
2023-06-10T11:13:16.807Z,8.23
2023-06-10T11:14:10.821Z,7.45
2023-06-10T11:15:01.921Z,7.32
2023-06-10T11:15:52.663Z,7.57
2023-06-10T11:16:44.927Z,8.00
2023-06-10T11:17:36.281Z,6.72
2023-06-10T11:18:29.281Z,7.38
2023-06-10T11:19:37.178Z,7.18
2023-06-10T11:20:50.732Z,8.02
2023-06-10T11:22:17.009Z,7.22
2023-06-10T11:23:08.075Z,7.05
2023-06-10T11:24:00.218Z,6.57
2023-06-10T11:24:52.476Z,7.47
2023-06-10T11:25:43.606Z,7.18
2023-06-10T11:26:35.638Z,7.32
2023-06-10T11:27:29.007Z,7.45
2023-06-10T11:28:21.019Z,6.53
2023-06-10T11:29:11.716Z,7.55
2023-06-10T11:30:02.550Z,7.97
2023-06-10T11:30:59.196Z,7.55
2023-06-10T11:31:51.823Z,8.40
2023-06-10T11:32:44.267Z,7.20
2023-06-10T11:33:39.560Z,8.02
2023-06-10T11:34:30.733Z,7.75
2023-06-10T11:35:24.810Z,7.13
2023-06-10T11:36:15.975Z,7.82
2023-06-10T11:37:07.027Z,7.75
2023-06-10T11:37:57.774Z,8.13
2023-06-10T11:38:49.286Z,8.50
2023-06-10T11:39:40.418Z,7.82
2023-06-10T11:40:32.043Z,8.38
2023-06-10T11:41:24.423Z,6.90
2023-06-10T11:42:17.664Z,7.15
2023-06-10T11:43:08.472Z,7.53
2023-06-10T11:44:04.523Z,7.35
2023-06-10T11:44:55.479Z,8.32
2023-06-10T11:45:54.905Z,8.25
2023-06-10T11:46:46.391Z,7.55
2023-06-10T11:47:37.121Z,7.75
2023-06-10T11:48:31.483Z,7.75
2023-06-10T11:49:22.594Z,8.07
2023-06-10T11:50:13.320Z,7.43
2023-06-10T11:51:10.222Z,8.82
2023-06-10T11:52:01.569Z,8.85
2023-06-10T11:52:52.611Z,7.50
2023-06-10T11:53:49.949Z,7.60
2023-06-10T11:54:41.173Z,7.90
2023-06-10T11:55:48.097Z,7.13
2023-06-10T11:56:39.029Z,6.60
2023-06-10T11:57:29.850Z,7.82
2023-06-10T11:58:22.702Z,8.18
2023-06-10T11:59:13.725Z,7.50
2023-06-10T12:00:09.757Z,7.93